Time;durP1;ratioP1;P1;durP2;ratioP2;P2;SDS_P1;SDS_P2;PMS_P1;PMS_P2;Temp;Humidity;BMP_temperature;BMP_pressure;BME280_temperature;BME280_humidity;BME280_pressure;Samples;Min_cycle;Max_cycle;Signal;HPM_P1;HPM_P2
2023/11/06 00:00:08;;;;;;;6.47;1.60;;;9.70;99.90;;;;;;15553963;22;20027;-33
2023/11/06 00:06:42;;;;;;;6.05;1.70;;;9.80;99.90;;;;;;15578240;22;20063;-33
2023/11/06 00:13:18;;;;;;;5.05;1.48;;;9.70;99.90;;;;;;15577278;22;20465;-33
2023/11/06 00:19:59;;;;;;;7.78;1.88;;;9.80;99.90;;;;;;15578594;22;20027;-38
2023/11/06 00:26:45;;;;;;;6.82;1.58;;;9.90;99.90;;;;;;15576736;22;20023;-33
2023/11/06 00:33:25;;;;;;;7.38;1.73;;;9.80;99.90;;;;;;15578769;22;20329;-33
2023/11/06 00:39:40;;;;;;;5.70;1.90;;;9.90;99.90;;;;;;15578152;22;20028;-33
2023/11/06 00:46:19;;;;;;;10.05;2.60;;;9.90;99.90;;;;;;15579013;22;20015;-33
2023/11/06 00:52:57;;;;;;;10.77;2.47;;;9.80;99.90;;;;;;15577714;22;20754;-33
2023/11/06 00:59:32;;;;;;;6.53;2.33;;;9.80;99.90;;;;;;15577182;22;20023;-33
2023/11/06 01:06:08;;;;;;;10.25;2.50;;;9.80;99.90;;;;;;15575959;22;20020;-33
2023/11/06 01:12:48;;;;;;;4.95;2.03;;;9.70;99.90;;;;;;15576644;22;20027;-33
2023/11/06 01:19:20;;;;;;;5.88;2.25;;;9.80;99.90;;;;;;15575512;22;20043;-33
2023/11/06 01:25:54;;;;;;;5.78;2.25;;;9.70;99.90;;;;;;15577924;22;20046;-32
2023/11/06 01:32:33;;;;;;;11.68;2.75;;;9.80;99.90;;;;;;15554190;22;20062;-33
2023/11/06 01:39:10;;;;;;;4.25;2.05;;;9.80;99.90;;;;;;15577044;22;20075;-33
2023/11/06 01:45:45;;;;;;;9.05;2.42;;;9.80;99.90;;;;;;15576576;22;20022;-33
2023/11/06 01:52:28;;;;;;;5.55;2.25;;;10.00;99.90;;;;;;15580099;22;20338;-33
2023/11/06 01:59:09;;;;;;;5.13;2.40;;;9.90;99.90;;;;;;15582998;22;20046;-33
2023/11/06 02:05:52;;;;;;;5.72;1.90;;;9.90;99.90;;;;;;15582079;22;20061;-33
2023/11/06 02:12:23;;;;;;;4.95;1.70;;;9.80;99.90;;;;;;15556378;22;20362;-33
2023/11/06 02:18:55;;;;;;;10.00;2.30;;;9.80;99.90;;;;;;15577298;22;20473;-33
2023/11/06 02:25:41;;;;;;;6.93;1.95;;;9.80;99.90;;;;;;15581406;22;20101;-33
2023/11/06 02:32:16;;;;;;;5.70;2.20;;;9.80;99.90;;;;;;15580588;22;20577;-33
2023/11/06 02:38:38;;;;;;;7.47;2.33;;;9.80;99.90;;;;;;15582450;22;20034;-33
2023/11/06 02:45:04;;;;;;;6.68;3.03;;;9.90;99.90;;;;;;15578614;22;20047;-33
2023/11/06 02:51:44;;;;;;;6.00;2.00;;;9.90;99.90;;;;;;15579357;22;20027;-33
2023/11/06 02:58:11;;;;;;;4.45;1.70;;;9.90;99.90;;;;;;15581567;22;20031;-33
2023/11/06 03:04:52;;;;;;;8.18;2.85;;;9.90;99.90;;;;;;15577096;22;20031;-33
2023/11/06 03:11:35;;;;;;;4.57;1.80;;;9.90;99.90;;;;;;15578456;22;20139;-33
2023/11/06 03:18:16;;;;;;;5.40;1.92;;;10.00;99.90;;;;;;15501989;23;20162;-33
2023/11/06 03:24:49;;;;;;;6.25;1.88;;;9.90;99.90;;;;;;15478559;23;20488;-33
2023/11/06 03:31:26;;;;;;;5.97;1.92;;;10.00;99.90;;;;;;15502147;23;20027;-33
2023/11/06 03:38:02;;;;;;;7.30;1.67;;;10.00;99.90;;;;;;15500006;23;20024;-33
2023/11/06 03:44:35;;;;;;;7.60;1.60;;;10.10;99.90;;;;;;15479918;23;20044;-33
2023/11/06 03:51:07;;;;;;;6.72;1.80;;;10.00;99.90;;;;;;15477224;23;20020;-33
2023/11/06 03:57:38;;;;;;;5.22;1.70;;;9.90;99.90;;;;;;15504839;23;20405;-33
2023/11/06 04:04:14;;;;;;;5.27;2.00;;;9.90;99.90;;;;;;15500136;23;20126;-33
2023/11/06 04:10:38;;;;;;;4.95;1.90;;;9.90;99.90;;;;;;15503526;23;20027;-33
2023/11/06 04:17:11;;;;;;;7.72;1.88;;;10.00;99.90;;;;;;15566399;22;20031;-33
2023/11/06 04:23:46;;;;;;;5.03;1.80;;;9.90;99.90;;;;;;15577341;22;20134;-33
2023/11/06 04:30:18;;;;;;;7.50;1.85;;;9.90;99.90;;;;;;15578988;22;20039;-33
2023/11/06 04:36:48;;;;;;;5.93;1.88;;;10.00;99.90;;;;;;15551546;22;20043;-33
2023/11/06 04:43:19;;;;;;;6.65;2.13;;;9.90;99.90;;;;;;15554581;22;20514;-33
2023/11/06 04:49:50;;;;;;;7.20;2.08;;;10.00;99.90;;;;;;15553122;22;20023;-33
2023/11/06 04:56:25;;;;;;;7.57;1.63;;;10.00;99.90;;;;;;15578467;22;20020;-33
2023/11/06 05:02:58;;;;;;;8.50;2.22;;;9.90;99.90;;;;;;15556882;22;20019;-33
2023/11/06 05:09:38;;;;;;;7.13;1.73;;;9.90;99.90;;;;;;15553267;22;20024;-33
2023/11/06 05:16:24;;;;;;;6.05;2.00;;;9.90;99.90;;;;;;15574946;22;20361;-33
2023/11/06 05:22:58;;;;;;;4.20;2.05;;;10.00;99.90;;;;;;15575580;22;20047;-33
2023/11/06 05:29:26;;;;;;;7.03;1.65;;;9.90;99.90;;;;;;15583296;22;20485;-33
2023/11/06 05:36:11;;;;;;;5.40;1.90;;;9.90;99.90;;;;;;15560883;22;20031;-33
2023/11/06 05:42:41;;;;;;;5.90;2.33;;;9.90;99.90;;;;;;15584661;22;20035;-33
2023/11/06 05:49:22;;;;;;;7.50;2.40;;;9.90;99.90;;;;;;15582372;22;20020;-33
2023/11/06 05:55:39;;;;;;;6.03;2.22;;;9.90;99.90;;;;;;15584788;22;20102;-33
2023/11/06 06:01:56;;;;;;;9.40;3.33;;;9.90;99.90;;;;;;15584019;22;20393;-33
2023/11/06 06:08:28;;;;;;;7.07;2.88;;;9.80;99.90;;;;;;15579149;22;20016;-33
2023/11/06 06:14:55;;;;;;;7.18;2.40;;;9.80;99.90;;;;;;15580615;22;20030;-33
2023/11/06 06:21:26;;;;;;;8.65;2.10;;;9.80;99.90;;;;;;15579015;22;20019;-33
2023/11/06 06:27:51;;;;;;;6.32;2.25;;;9.80;99.90;;;;;;15556347;22;20026;-33
2023/11/06 06:34:26;;;;;;;8.35;1.92;;;9.90;99.90;;;;;;15556080;22;20366;-33
2023/11/06 06:40:49;;;;;;;5.15;2.30;;;9.80;99.90;;;;;;15582533;22;20030;-32
2023/11/06 06:47:30;;;;;;;7.15;2.30;;;9.90;99.90;;;;;;15578155;22;20026;-33
2023/11/06 06:54:00;;;;;;;;;;;9.90;99.90;;;;;;15582583;22;20042;-33
2023/11/06 07:00:38;;;;;;;6.20;2.10;;;9.90;99.90;;;;;;15556307;22;19919;-33
2023/11/06 07:07:12;;;;;;;5.22;1.77;;;9.90;99.90;;;;;;15578787;22;20019;-33
2023/11/06 07:13:48;;;;;;;4.50;1.90;;;10.00;99.90;;;;;;15578474;22;20370;-33
2023/11/06 07:20:15;;;;;;;6.22;1.92;;;10.10;99.90;;;;;;15578529;22;20031;-33
2023/11/06 07:26:51;;;;;;;7.27;2.03;;;10.00;99.90;;;;;;15579806;22;20023;-33
2023/11/06 07:33:27;;;;;;;6.35;1.83;;;9.90;99.90;;;;;;15582258;22;20019;-32
2023/11/06 07:40:05;;;;;;;4.47;1.30;;;9.90;99.90;;;;;;15576465;22;20034;-33
2023/11/06 07:46:41;;;;;;;4.18;1.80;;;9.80;99.90;;;;;;15554937;22;20104;-33
2023/11/06 07:53:15;;;;;;;5.90;1.58;;;9.80;99.90;;;;;;15578205;22;20129;-33
2023/11/06 07:59:58;;;;;;;7.85;1.60;;;9.80;99.90;;;;;;15553216;22;20031;-33
2023/11/06 08:06:27;;;;;;;7.70;1.60;;;9.80;99.90;;;;;;15576585;22;20093;-33
2023/11/06 08:13:02;;;;;;;6.22;1.40;;;9.80;99.90;;;;;;15577917;22;20023;-33
2023/11/06 08:19:44;;;;;;;5.82;1.30;;;9.90;99.90;;;;;;15575186;22;20558;-33
2023/11/06 08:26:10;;;;;;;8.00;1.70;;;9.90;99.90;;;;;;15577090;22;20136;-33
2023/11/06 08:32:41;;;;;;;9.90;1.42;;;9.90;99.90;;;;;;15577288;22;20098;-33
2023/11/06 08:39:05;;;;;;;6.35;1.50;;;10.00;99.90;;;;;;15576412;22;20063;-33
2023/11/06 08:45:36;;;;;;;6.93;1.57;;;10.10;99.90;;;;;;15575889;22;20070;-33
2023/11/06 08:52:13;;;;;;;3.90;1.10;;;10.20;99.90;;;;;;15577432;22;20049;-33
2023/11/06 08:58:38;;;;;;;10.83;1.70;;;10.20;99.90;;;;;;15578961;22;20071;-35
2023/11/06 09:05:12;;;;;;;5.43;1.30;;;10.30;99.90;;;;;;15579209;22;20094;-33
2023/11/06 09:11:46;;;;;;;16.23;3.35;;;10.30;99.90;;;;;;15571083;22;20027;-33
2023/11/06 09:18:32;;;;;;;9.57;1.67;;;10.40;99.90;;;;;;15574038;22;20400;-33
2023/11/06 09:25:07;;;;;;;7.68;1.80;;;10.50;99.90;;;;;;15553373;22;20054;-33
2023/11/06 09:31:34;;;;;;;8.13;1.52;;;10.50;99.90;;;;;;15578351;22;20508;-33
2023/11/06 09:37:59;;;;;;;11.63;1.70;;;10.60;99.90;;;;;;15578008;22;20019;-33
2023/11/06 09:44:32;;;;;;;12.00;1.83;;;10.60;99.90;;;;;;15576556;22;20533;-33
2023/11/06 09:51:18;;;;;;;7.13;1.50;;;10.70;99.90;;;;;;15551686;22;20349;-33
2023/11/06 09:57:43;;;;;;;10.75;1.90;;;10.80;99.90;;;;;;15577707;22;20023;-33
2023/11/06 10:04:15;;;;;;;8.00;1.45;;;10.90;99.90;;;;;;15577378;22;20055;-33
2023/11/06 10:11:09;;;;;;;12.02;1.50;;;10.90;99.90;;;;;;15563235;22;20369;-33
2023/11/06 10:17:40;;;;;;;8.77;1.30;;;11.00;99.90;;;;;;15582158;22;20105;-32
2023/11/06 10:24:16;;;;;;;4.88;1.10;;;11.00;99.90;;;;;;15556395;22;20030;-33
2023/11/06 10:30:57;;;;;;;8.77;1.38;;;10.90;99.90;;;;;;15581181;22;20026;-33
2023/11/06 10:37:35;;;;;;;9.38;1.30;;;10.90;99.90;;;;;;15579092;22;20027;-33
2023/11/06 10:44:21;;;;;;;5.88;1.70;;;11.00;99.90;;;;;;15581871;22;20023;-33
2023/11/06 10:51:00;;;;;;;7.47;1.30;;;10.90;99.90;;;;;;15578529;22;20066;-33
2023/11/06 10:57:27;;;;;;;12.38;1.80;;;10.90;99.90;;;;;;15579601;22;20020;-33
2023/11/06 11:03:49;;;;;;;7.97;1.85;;;10.90;99.90;;;;;;15581599;22;20094;-33
2023/11/06 11:10:26;;;;;;;9.65;1.58;;;10.90;99.90;;;;;;15558283;22;20020;-33
2023/11/06 11:16:56;;;;;;;6.25;1.30;;;11.20;99.90;;;;;;15577046;22;20028;-33
2023/11/06 11:23:42;;;;;;;6.72;1.45;;;11.40;99.90;;;;;;15577746;22;20109;-33
2023/11/06 11:30:16;;;;;;;12.32;1.98;;;11.50;99.90;;;;;;15580235;22;20023;-33
2023/11/06 11:36:43;;;;;;;9.40;1.58;;;11.40;99.90;;;;;;15556565;22;20055;-33
2023/11/06 11:43:28;;;;;;;7.78;1.52;;;11.30;99.90;;;;;;15578822;22;20111;-33
2023/11/06 11:50:05;;;;;;;8.30;1.10;;;11.40;94.60;;;;;;15572355;22;20020;-33
2023/11/06 11:57:02;;;;;;;7.35;1.30;;;11.60;99.90;;;;;;15553479;22;20027;-33
2023/11/06 12:03:30;;;;;;;9.60;1.58;;;12.00;95.80;;;;;;15576683;22;20020;-33
2023/11/06 12:10:03;;;;;;;5.00;1.10;;;12.10;67.30;;;;;;15576002;22;20510;-33
2023/11/06 12:16:32;;;;;;;10.48;1.40;;;12.00;86.20;;;;;;15577618;22;20043;-33
2023/11/06 12:23:17;;;;;;;4.93;1.05;;;11.90;93.50;;;;;;15577883;22;20027;-33
2023/11/06 12:30:07;;;;;;;8.80;1.33;;;12.00;48.90;;;;;;15578411;22;20023;-33
2023/11/06 12:36:45;;;;;;;5.38;0.90;;;11.90;36.80;;;;;;15576936;22;20020;-33
2023/11/06 12:43:18;;;;;;;8.30;1.30;;;12.00;99.90;;;;;;15575627;22;20026;-33
2023/11/06 12:50:01;;;;;;;4.97;1.15;;;11.90;99.90;;;;;;15578511;22;20454;-33
2023/11/06 12:56:30;;;;;;;4.85;0.98;;;11.80;99.90;;;;;;15579264;22;20473;-33
2023/11/06 13:02:59;;;;;;;3.70;1.00;;;11.70;99.90;;;;;;15567541;22;20028;-32
2023/11/06 13:09:39;;;;;;;9.02;1.35;;;11.70;97.70;;;;;;15573687;22;20019;-33
2023/11/06 13:16:09;;;;;;;9.30;1.17;;;11.60;93.60;;;;;;15573933;22;20088;-34
2023/11/06 13:22:55;;;;;;;7.20;1.40;;;11.60;99.90;;;;;;15575431;22;20146;-33
2023/11/06 13:29:32;;;;;;;6.32;1.17;;;11.70;88.60;;;;;;15570987;22;20331;-33
2023/11/06 13:36:23;;;;;;;;;;;;;;;;;;;;;
2023/11/06 13:43:08;;;;;;;8.63;1.10;;;11.50;99.90;;;;;;15575677;22;20019;-33
2023/11/06 13:49:49;;;;;;;6.00;1.58;;;11.40;99.90;;;;;;15578239;22;20024;-32
2023/11/06 13:56:33;;;;;;;7.40;1.70;;;11.40;99.90;;;;;;15581688;22;20473;-33
2023/11/06 14:03:14;;;;;;;8.15;1.75;;;11.20;99.90;;;;;;15581306;22;20023;-33
2023/11/06 14:10:16;;;;;;;9.50;1.25;;;11.20;99.90;;;;;;15557169;22;20016;-33
2023/11/06 14:16:59;;;;;;;6.32;1.60;;;11.10;99.90;;;;;;15577889;22;20030;-33
2023/11/06 14:23:25;;;;;;;9.97;2.50;;;11.20;99.90;;;;;;15557676;22;20581;-33
2023/11/06 14:29:55;;;;;;;8.03;1.77;;;11.20;99.90;;;;;;15582622;22;20226;-33
2023/11/06 14:36:19;;;;;;;11.65;1.38;;;11.10;99.90;;;;;;15580752;22;20091;-33
2023/11/06 14:42:56;;;;;;;3.42;0.90;;;11.00;99.90;;;;;;15577042;22;20026;-33
2023/11/06 14:49:27;;;;;;;5.35;1.08;;;10.90;99.90;;;;;;15581216;22;20024;-33
2023/11/06 14:56:19;;;;;;;6.35;1.13;;;11.00;99.90;;;;;;15563217;22;20031;-33
2023/11/06 15:02:47;;;;;;;6.05;0.98;;;11.10;99.90;;;;;;15579832;22;20035;-33
2023/11/06 15:09:29;;;;;;;4.15;1.05;;;11.10;99.90;;;;;;15578747;22;20023;-33
2023/11/06 15:16:14;;;;;;;3.92;0.98;;;11.00;99.90;;;;;;15558795;22;20025;-33
2023/11/06 15:22:48;;;;;;;6.28;1.13;;;11.00;99.90;;;;;;15554688;22;20035;-33
2023/11/06 15:29:39;;;;;;;4.55;1.13;;;10.90;99.90;;;;;;15557321;22;20346;-33
2023/11/06 15:36:19;;;;;;;2.85;0.73;;;10.90;99.90;;;;;;15577852;22;20094;-33
2023/11/06 15:42:45;;;;;;;6.20;1.15;;;10.90;99.90;;;;;;15555978;22;20027;-33
2023/11/06 15:49:22;;;;;;;4.65;1.00;;;10.90;99.90;;;;;;15581231;22;20026;-33
2023/11/06 15:55:56;;;;;;;4.55;1.00;;;10.90;99.90;;;;;;15579043;22;20023;-33
2023/11/06 16:02:33;;;;;;;8.10;1.10;;;10.80;99.90;;;;;;15577943;22;20027;-33
2023/11/06 16:09:16;;;;;;;3.88;0.93;;;10.90;99.90;;;;;;15552632;22;20042;-33
2023/11/06 16:15:53;;;;;;;3.28;0.88;;;10.90;99.90;;;;;;15579607;22;20112;-33
2023/11/06 16:22:25;;;;;;;5.60;0.98;;;10.80;99.90;;;;;;15552173;22;20039;-33
2023/11/06 16:28:49;;;;;;;4.50;0.93;;;10.80;99.90;;;;;;15578441;22;20024;-33
2023/11/06 16:35:08;;;;;;;5.50;1.20;;;10.80;99.90;;;;;;15575514;22;20027;-33
2023/11/06 16:41:20;;;;;;;7.05;1.08;;;10.80;99.90;;;;;;15577889;22;20055;-33
2023/11/06 16:47:42;;;;;;;3.60;0.85;;;10.70;99.90;;;;;;15575862;22;20023;-33
2023/11/06 16:54:06;;;;;;;5.13;0.90;;;10.70;99.90;;;;;;15576295;22;20023;-33
2023/11/06 17:00:36;;;;;;;3.55;1.08;;;10.70;99.90;;;;;;15577295;22;20370;-33
2023/11/06 17:06:57;;;;;;;4.22;0.93;;;10.70;99.90;;;;;;15575898;22;20521;-33
2023/11/06 17:13:30;;;;;;;4.03;1.00;;;10.70;99.90;;;;;;15577180;22;20023;-33
2023/11/06 17:20:10;;;;;;;5.60;1.17;;;10.70;99.90;;;;;;15551812;22;20024;-33
2023/11/06 17:26:49;;;;;;;3.97;1.10;;;10.60;99.90;;;;;;15556080;22;20535;-33
2023/11/06 17:33:28;;;;;;;2.80;0.75;;;10.50;99.90;;;;;;15576822;22;20473;-33
2023/11/06 17:40:03;;;;;;;5.35;0.98;;;10.30;99.90;;;;;;15576715;22;20103;-33
2023/11/06 17:46:53;;;;;;;3.42;0.90;;;10.00;99.90;;;;;;15555285;22;20098;-33
2023/11/06 17:53:40;;;;;;;5.97;1.08;;;9.70;99.90;;;;;;15575221;22;20024;-33
2023/11/06 18:00:27;;;;;;;4.45;1.05;;;9.50;99.90;;;;;;15577074;22;20102;-33
2023/11/06 18:07:11;;;;;;;6.47;1.05;;;9.40;99.90;;;;;;15575897;22;20375;-33
2023/11/06 18:13:51;;;;;;;5.95;1.20;;;9.40;99.90;;;;;;15573968;22;20027;-33
2023/11/06 18:20:43;;;;;;;4.57;1.10;;;9.30;99.90;;;;;;15577214;22;20019;-33
2023/11/06 18:27:18;;;;;;;5.57;1.65;;;9.30;99.90;;;;;;15578262;22;20059;-33
2023/11/06 18:33:56;;;;;;;4.78;1.55;;;9.40;99.90;;;;;;15557995;22;20035;-33
2023/11/06 18:40:36;;;;;;;4.18;1.30;;;9.30;99.90;;;;;;15564729;22;20147;-33
2023/11/06 18:47:13;;;;;;;5.80;2.20;;;9.10;99.90;;;;;;15554429;22;20027;-33
2023/11/06 18:54:00;;;;;;;4.05;1.52;;;9.10;99.90;;;;;;15578917;22;20019;-33
2023/11/06 19:00:42;;;;;;;7.07;1.95;;;9.10;99.90;;;;;;15579830;22;20024;-33
2023/11/06 19:07:19;;;;;;;3.97;1.83;;;9.20;99.90;;;;;;15578758;22;20026;-33
2023/11/06 19:13:45;;;;;;;3.45;1.40;;;9.10;99.90;;;;;;15579863;22;20109;-33
2023/11/06 19:20:11;;;;;;;3.90;1.67;;;9.10;99.90;;;;;;15553754;22;20450;-33
2023/11/06 19:26:31;;;;;;;7.82;2.00;;;9.10;99.90;;;;;;15579759;22;20020;-33
2023/11/06 19:33:03;;;;;;;6.03;2.05;;;9.20;99.90;;;;;;15579197;22;20015;-33
2023/11/06 19:39:23;;;;;;;5.03;1.90;;;9.20;99.90;;;;;;15580696;22;20027;-33
2023/11/06 19:45:48;;;;;;;9.60;2.20;;;9.20;99.90;;;;;;15580395;22;20020;-33
2023/11/06 19:52:24;;;;;;;7.30;2.40;;;9.20;99.90;;;;;;15584491;22;20094;-33
2023/11/06 19:58:51;;;;;;;5.32;2.55;;;9.00;99.90;;;;;;15584917;22;20098;-34
2023/11/06 20:05:37;;;;;;;6.57;2.47;;;9.00;99.90;;;;;;15562687;22;20330;-34
2023/11/06 20:12:05;;;;;;;10.45;2.85;;;9.00;99.90;;;;;;15579459;22;20030;-34
2023/11/06 20:18:35;;;;;;;8.43;4.05;;;9.10;99.90;;;;;;15580420;22;20027;-34
2023/11/06 20:25:07;;;;;;;8.93;2.40;;;8.90;99.90;;;;;;15580555;22;20020;-33
2023/11/06 20:31:28;;;;;;;8.73;2.50;;;8.90;99.90;;;;;;15581728;22;20247;-34
2023/11/06 20:37:50;;;;;;;8.77;2.70;;;8.90;99.90;;;;;;15578053;22;20039;-34
2023/11/06 20:44:10;;;;;;;7.90;2.58;;;8.90;99.90;;;;;;15578167;22;20024;-34
2023/11/06 20:50:51;;;;;;;7.10;2.72;;;9.00;99.90;;;;;;15554779;22;20020;-34
2023/11/06 20:57:18;;;;;;;7.75;2.33;;;9.20;99.90;;;;;;15576776;22;20030;-34
2023/11/06 21:03:49;;;;;;;5.97;2.13;;;9.20;99.90;;;;;;15577077;22;20073;-33
2023/11/06 21:10:17;;;;;;;8.80;1.67;;;9.20;99.90;;;;;;15578599;22;20020;-33
2023/11/06 21:16:43;;;;;;;5.07;1.85;;;9.00;99.90;;;;;;15578444;22;20035;-34
2023/11/06 21:23:15;;;;;;;7.72;2.20;;;9.00;99.90;;;;;;15576470;22;20031;-33
2023/11/06 21:29:37;;;;;;;5.13;2.30;;;8.90;99.90;;;;;;15577041;22;20023;-33
2023/11/06 21:35:59;;;;;;;8.07;2.10;;;8.90;99.90;;;;;;15576529;22;20016;-33
2023/11/06 21:42:28;;;;;;;4.55;1.85;;;8.90;99.90;;;;;;15576923;22;20016;-33
2023/11/06 21:48:57;;;;;;;5.28;1.85;;;8.80;99.90;;;;;;15553715;22;20023;-34
2023/11/06 21:55:29;;;;;;;;;;;8.70;99.90;;;;;;15578683;22;20031;-33
2023/11/06 22:01:48;;;;;;;10.70;1.65;;;8.60;99.90;;;;;;15576001;22;19919;-34
2023/11/06 22:08:15;;;;;;;7.80;1.70;;;8.60;99.90;;;;;;15578178;22;20016;-34
2023/11/06 22:14:45;;;;;;;7.35;1.83;;;8.60;99.90;;;;;;15581867;22;20031;-33
2023/11/06 22:21:18;;;;;;;5.95;1.58;;;8.60;99.90;;;;;;15579116;22;20386;-33
2023/11/06 22:27:45;;;;;;;4.55;1.55;;;8.60;99.90;;;;;;15575982;22;20027;-33
2023/11/06 22:34:27;;;;;;;6.68;1.70;;;8.60;99.90;;;;;;15565550;22;20558;-33
2023/11/06 22:41:06;;;;;;;8.45;1.63;;;8.60;99.90;;;;;;15553398;22;20362;-34
2023/11/06 22:47:39;;;;;;;6.47;1.70;;;8.50;99.90;;;;;;15567219;22;20322;-33
2023/11/06 22:54:14;;;;;;;6.68;1.65;;;8.50;99.90;;;;;;15576163;22;20077;-34
2023/11/06 23:00:46;;;;;;;4.55;1.30;;;8.50;99.90;;;;;;15580143;22;20027;-34
2023/11/06 23:07:26;;;;;;;5.75;1.48;;;8.50;99.90;;;;;;15580941;22;20024;-34
2023/11/06 23:14:03;;;;;;;7.13;1.50;;;8.60;99.90;;;;;;15579932;22;20357;-33
2023/11/06 23:20:32;;;;;;;5.93;1.55;;;8.60;99.90;;;;;;15481896;23;20098;-34
2023/11/06 23:27:11;;;;;;;10.00;1.30;;;8.60;99.90;;;;;;15481892;23;20343;-34
2023/11/06 23:33:39;;;;;;;6.07;1.40;;;8.50;99.90;;;;;;15505110;23;20031;-33
2023/11/06 23:40:09;;;;;;;5.20;1.10;;;8.50;99.90;;;;;;15478919;23;20052;-34
2023/11/06 23:46:48;;;;;;;9.65;1.60;;;8.50;99.90;;;;;;15499143;23;20478;-34
2023/11/06 23:53:16;;;;;;;6.97;1.60;;;8.50;99.90;;;;;;15502800;23;20023;-33
2023/11/06 23:59:46;;;;;;;6.90;1.40;;;8.40;99.90;;;;;;15496942;23;20020;-33
